sensor_id;sensor_type;location;lat;lon;timestamp;P1;durP1;ratioP1;P2;durP2;ratioP2
72728;SDS011;60843;52.062;4.508;2023-04-19T00:01:17;8.15;;;4.75;;
72728;SDS011;60843;52.062;4.508;2023-04-19T00:03:44;10.38;;;4.93;;
72728;SDS011;60843;52.062;4.508;2023-04-19T00:06:09;7.82;;;4.22;;
72728;SDS011;60843;52.062;4.508;2023-04-19T00:08:37;8.13;;;4.97;;
72728;SDS011;60843;52.062;4.508;2023-04-19T00:11:02;8.70;;;4.90;;
72728;SDS011;60843;52.062;4.508;2023-04-19T00:13:27;8.77;;;4.37;;
72728;SDS011;60843;52.062;4.508;2023-04-19T00:18:21;8.13;;;4.68;;
72728;SDS011;60843;52.062;4.508;2023-04-19T00:20:47;7.55;;;3.58;;
72728;SDS011;60843;52.062;4.508;2023-04-19T00:23:12;7.47;;;4.47;;
72728;SDS011;60843;52.062;4.508;2023-04-19T00:25:38;9.77;;;5.32;;
72728;SDS011;60843;52.062;4.508;2023-04-19T00:28:03;8.10;;;4.40;;
72728;SDS011;60843;52.062;4.508;2023-04-19T00:30:29;8.80;;;5.05;;
72728;SDS011;60843;52.062;4.508;2023-04-19T00:32:54;9.73;;;4.53;;
72728;SDS011;60843;52.062;4.508;2023-04-19T00:35:20;10.35;;;4.93;;
72728;SDS011;60843;52.062;4.508;2023-04-19T00:37:46;9.35;;;4.75;;
72728;SDS011;60843;52.062;4.508;2023-04-19T00:40:11;7.05;;;4.18;;
72728;SDS011;60843;52.062;4.508;2023-04-19T00:42:43;8.30;;;4.73;;
72728;SDS011;60843;52.062;4.508;2023-04-19T00:45:08;8.27;;;4.65;;
72728;SDS011;60843;52.062;4.508;2023-04-19T00:47:35;8.45;;;4.72;;
72728;SDS011;60843;52.062;4.508;2023-04-19T00:50:01;8.93;;;5.10;;
72728;SDS011;60843;52.062;4.508;2023-04-19T00:52:28;8.60;;;4.60;;
72728;SDS011;60843;52.062;4.508;2023-04-19T00:54:54;8.30;;;4.95;;
72728;SDS011;60843;52.062;4.508;2023-04-19T00:57:19;10.30;;;4.70;;
72728;SDS011;60843;52.062;4.508;2023-04-19T00:59:47;9.07;;;5.10;;
72728;SDS011;60843;52.062;4.508;2023-04-19T01:02:13;9.57;;;5.25;;
72728;SDS011;60843;52.062;4.508;2023-04-19T01:04:38;8.77;;;4.83;;
72728;SDS011;60843;52.062;4.508;2023-04-19T01:07:04;11.30;;;5.53;;
72728;SDS011;60843;52.062;4.508;2023-04-19T01:09:29;8.25;;;5.03;;
72728;SDS011;60843;52.062;4.508;2023-04-19T01:11:56;9.05;;;4.97;;
72728;SDS011;60843;52.062;4.508;2023-04-19T01:14:22;9.60;;;4.82;;
72728;SDS011;60843;52.062;4.508;2023-04-19T01:16:47;9.90;;;5.18;;
72728;SDS011;60843;52.062;4.508;2023-04-19T01:19:13;9.68;;;5.22;;
72728;SDS011;60843;52.062;4.508;2023-04-19T01:24:07;9.95;;;5.20;;
72728;SDS011;60843;52.062;4.508;2023-04-19T01:26:33;9.15;;;4.75;;
72728;SDS011;60843;52.062;4.508;2023-04-19T01:29:02;9.93;;;5.05;;
72728;SDS011;60843;52.062;4.508;2023-04-19T01:31:28;10.23;;;5.03;;
72728;SDS011;60843;52.062;4.508;2023-04-19T01:33:54;10.20;;;5.53;;
72728;SDS011;60843;52.062;4.508;2023-04-19T01:36:20;11.63;;;4.97;;
72728;SDS011;60843;52.062;4.508;2023-04-19T01:38:45;9.23;;;5.47;;
72728;SDS011;60843;52.062;4.508;2023-04-19T01:41:13;8.25;;;4.78;;
72728;SDS011;60843;52.062;4.508;2023-04-19T01:43:39;11.48;;;5.75;;
72728;SDS011;60843;52.062;4.508;2023-04-19T01:46:04;10.38;;;5.47;;
72728;SDS011;60843;52.062;4.508;2023-04-19T01:48:30;9.98;;;5.40;;
72728;SDS011;60843;52.062;4.508;2023-04-19T01:50:55;10.67;;;5.70;;
72728;SDS011;60843;52.062;4.508;2023-04-19T01:53:20;9.73;;;5.47;;
72728;SDS011;60843;52.062;4.508;2023-04-19T01:55:46;10.88;;;5.40;;
72728;SDS011;60843;52.062;4.508;2023-04-19T01:58:11;10.98;;;5.22;;
72728;SDS011;60843;52.062;4.508;2023-04-19T02:00:37;10.83;;;6.10;;
72728;SDS011;60843;52.062;4.508;2023-04-19T02:03:02;11.73;;;5.75;;
72728;SDS011;60843;52.062;4.508;2023-04-19T02:05:27;10.07;;;5.50;;
72728;SDS011;60843;52.062;4.508;2023-04-19T02:07:53;10.88;;;5.93;;
72728;SDS011;60843;52.062;4.508;2023-04-19T02:10:18;7.10;;;4.20;;
72728;SDS011;60843;52.062;4.508;2023-04-19T02:12:44;10.00;;;5.63;;
72728;SDS011;60843;52.062;4.508;2023-04-19T02:15:09;10.97;;;5.57;;
72728;SDS011;60843;52.062;4.508;2023-04-19T02:17:35;8.52;;;4.30;;
72728;SDS011;60843;52.062;4.508;2023-04-19T02:20:00;12.10;;;5.83;;
72728;SDS011;60843;52.062;4.508;2023-04-19T02:22:25;8.45;;;5.13;;
72728;SDS011;60843;52.062;4.508;2023-04-19T02:24:51;9.95;;;6.05;;
72728;SDS011;60843;52.062;4.508;2023-04-19T02:27:16;12.67;;;5.80;;
72728;SDS011;60843;52.062;4.508;2023-04-19T02:29:42;22.00;;;5.75;;
72728;SDS011;60843;52.062;4.508;2023-04-19T02:32:08;11.75;;;6.05;;
72728;SDS011;60843;52.062;4.508;2023-04-19T02:34:33;10.60;;;6.40;;
72728;SDS011;60843;52.062;4.508;2023-04-19T02:37:00;11.77;;;5.90;;
72728;SDS011;60843;52.062;4.508;2023-04-19T02:39:26;15.18;;;6.72;;
72728;SDS011;60843;52.062;4.508;2023-04-19T02:41:51;11.93;;;6.47;;
72728;SDS011;60843;52.062;4.508;2023-04-19T02:44:17;13.43;;;6.63;;
72728;SDS011;60843;52.062;4.508;2023-04-19T02:46:51;14.73;;;6.23;;
72728;SDS011;60843;52.062;4.508;2023-04-19T02:49:17;12.80;;;5.90;;
72728;SDS011;60843;52.062;4.508;2023-04-19T02:51:43;12.18;;;7.00;;
72728;SDS011;60843;52.062;4.508;2023-04-19T02:54:09;9.83;;;5.70;;
72728;SDS011;60843;52.062;4.508;2023-04-19T02:56:35;11.77;;;6.18;;
72728;SDS011;60843;52.062;4.508;2023-04-19T02:59:02;10.70;;;6.00;;
72728;SDS011;60843;52.062;4.508;2023-04-19T03:01:28;10.98;;;6.28;;
72728;SDS011;60843;52.062;4.508;2023-04-19T03:03:55;12.25;;;6.88;;
72728;SDS011;60843;52.062;4.508;2023-04-19T03:06:21;12.77;;;6.53;;
72728;SDS011;60843;52.062;4.508;2023-04-19T03:08:46;12.47;;;5.97;;
72728;SDS011;60843;52.062;4.508;2023-04-19T03:11:12;11.95;;;6.35;;
72728;SDS011;60843;52.062;4.508;2023-04-19T03:13:38;9.85;;;5.90;;
72728;SDS011;60843;52.062;4.508;2023-04-19T03:16:04;14.77;;;6.78;;
72728;SDS011;60843;52.062;4.508;2023-04-19T03:18:31;11.02;;;6.50;;
72728;SDS011;60843;52.062;4.508;2023-04-19T03:20:56;12.20;;;6.43;;
72728;SDS011;60843;52.062;4.508;2023-04-19T03:23:21;11.02;;;5.85;;
72728;SDS011;60843;52.062;4.508;2023-04-19T03:25:47;10.88;;;6.10;;
72728;SDS011;60843;52.062;4.508;2023-04-19T03:28:13;11.90;;;6.38;;
72728;SDS011;60843;52.062;4.508;2023-04-19T03:30:39;11.07;;;6.03;;
72728;SDS011;60843;52.062;4.508;2023-04-19T03:33:05;10.73;;;6.47;;
72728;SDS011;60843;52.062;4.508;2023-04-19T03:35:30;11.80;;;6.35;;
72728;SDS011;60843;52.062;4.508;2023-04-19T03:37:56;8.77;;;5.47;;
72728;SDS011;60843;52.062;4.508;2023-04-19T03:40:22;13.77;;;6.43;;
72728;SDS011;60843;52.062;4.508;2023-04-19T03:42:47;11.23;;;6.07;;
72728;SDS011;60843;52.062;4.508;2023-04-19T03:45:12;10.23;;;6.17;;
72728;SDS011;60843;52.062;4.508;2023-04-19T03:47:38;12.33;;;6.23;;
72728;SDS011;60843;52.062;4.508;2023-04-19T03:50:03;8.90;;;5.67;;
72728;SDS011;60843;52.062;4.508;2023-04-19T03:52:29;13.43;;;6.35;;
72728;SDS011;60843;52.062;4.508;2023-04-19T03:54:55;11.70;;;5.18;;
72728;SDS011;60843;52.062;4.508;2023-04-19T03:57:20;12.83;;;6.50;;
72728;SDS011;60843;52.062;4.508;2023-04-19T03:59:46;10.13;;;6.00;;
72728;SDS011;60843;52.062;4.508;2023-04-19T04:02:11;12.15;;;6.55;;
72728;SDS011;60843;52.062;4.508;2023-04-19T04:04:43;10.57;;;5.22;;
72728;SDS011;60843;52.062;4.508;2023-04-19T04:07:08;9.90;;;5.72;;
72728;SDS011;60843;52.062;4.508;2023-04-19T04:09:33;10.53;;;5.97;;
72728;SDS011;60843;52.062;4.508;2023-04-19T04:11:59;12.23;;;5.82;;
72728;SDS011;60843;52.062;4.508;2023-04-19T04:14:24;12.02;;;6.43;;
72728;SDS011;60843;52.062;4.508;2023-04-19T04:16:50;10.20;;;5.70;;
72728;SDS011;60843;52.062;4.508;2023-04-19T04:19:17;11.95;;;5.03;;
72728;SDS011;60843;52.062;4.508;2023-04-19T04:21:45;11.80;;;6.55;;
72728;SDS011;60843;52.062;4.508;2023-04-19T04:24:11;11.93;;;6.18;;
72728;SDS011;60843;52.062;4.508;2023-04-19T04:26:37;9.37;;;5.83;;
72728;SDS011;60843;52.062;4.508;2023-04-19T04:29:03;10.52;;;5.10;;
72728;SDS011;60843;52.062;4.508;2023-04-19T04:31:29;10.77;;;5.93;;
72728;SDS011;60843;52.062;4.508;2023-04-19T04:33:55;12.00;;;5.65;;
72728;SDS011;60843;52.062;4.508;2023-04-19T04:36:23;10.70;;;5.65;;
72728;SDS011;60843;52.062;4.508;2023-04-19T04:38:52;10.20;;;5.15;;
72728;SDS011;60843;52.062;4.508;2023-04-19T04:41:17;12.63;;;6.20;;
72728;SDS011;60843;52.062;4.508;2023-04-19T04:43:44;13.57;;;5.88;;
72728;SDS011;60843;52.062;4.508;2023-04-19T04:46:15;11.25;;;5.75;;
72728;SDS011;60843;52.062;4.508;2023-04-19T04:48:41;7.78;;;4.20;;
72728;SDS011;60843;52.062;4.508;2023-04-19T04:51:06;10.07;;;4.95;;
72728;SDS011;60843;52.062;4.508;2023-04-19T04:53:32;10.23;;;5.83;;
72728;SDS011;60843;52.062;4.508;2023-04-19T04:56:19;13.30;;;5.88;;
72728;SDS011;60843;52.062;4.508;2023-04-19T04:58:47;9.30;;;5.32;;
72728;SDS011;60843;52.062;4.508;2023-04-19T05:01:13;9.45;;;5.10;;
72728;SDS011;60843;52.062;4.508;2023-04-19T05:03:38;10.60;;;5.70;;
72728;SDS011;60843;52.062;4.508;2023-04-19T05:06:04;12.18;;;6.00;;
72728;SDS011;60843;52.062;4.508;2023-04-19T05:08:31;10.05;;;5.70;;
72728;SDS011;60843;52.062;4.508;2023-04-19T05:10:57;9.40;;;5.80;;
72728;SDS011;60843;52.062;4.508;2023-04-19T05:13:22;10.00;;;5.57;;
72728;SDS011;60843;52.062;4.508;2023-04-19T05:15:48;9.70;;;5.10;;
72728;SDS011;60843;52.062;4.508;2023-04-19T05:18:13;11.55;;;5.55;;
72728;SDS011;60843;52.062;4.508;2023-04-19T05:20:39;10.53;;;6.03;;
72728;SDS011;60843;52.062;4.508;2023-04-19T05:23:06;8.90;;;5.27;;
72728;SDS011;60843;52.062;4.508;2023-04-19T05:25:32;9.27;;;5.32;;
72728;SDS011;60843;52.062;4.508;2023-04-19T05:27:57;10.65;;;5.22;;
72728;SDS011;60843;52.062;4.508;2023-04-19T05:30:23;8.57;;;5.13;;
72728;SDS011;60843;52.062;4.508;2023-04-19T05:32:48;10.43;;;5.22;;
72728;SDS011;60843;52.062;4.508;2023-04-19T05:35:14;9.95;;;5.88;;
72728;SDS011;60843;52.062;4.508;2023-04-19T05:37:39;10.87;;;6.00;;
72728;SDS011;60843;52.062;4.508;2023-04-19T05:40:05;9.38;;;4.82;;
72728;SDS011;60843;52.062;4.508;2023-04-19T05:42:37;10.60;;;5.55;;
72728;SDS011;60843;52.062;4.508;2023-04-19T05:45:03;7.83;;;5.07;;
72728;SDS011;60843;52.062;4.508;2023-04-19T05:47:29;7.38;;;3.70;;
72728;SDS011;60843;52.062;4.508;2023-04-19T05:49:54;9.30;;;5.20;;
72728;SDS011;60843;52.062;4.508;2023-04-19T05:52:19;8.25;;;5.03;;
72728;SDS011;60843;52.062;4.508;2023-04-19T05:54:45;11.23;;;5.00;;
72728;SDS011;60843;52.062;4.508;2023-04-19T05:57:10;6.03;;;3.83;;
72728;SDS011;60843;52.062;4.508;2023-04-19T05:59:35;9.77;;;4.43;;
72728;SDS011;60843;52.062;4.508;2023-04-19T06:02:01;11.77;;;5.32;;
72728;SDS011;60843;52.062;4.508;2023-04-19T06:04:27;10.90;;;4.93;;
72728;SDS011;60843;52.062;4.508;2023-04-19T06:06:52;10.60;;;5.30;;
72728;SDS011;60843;52.062;4.508;2023-04-19T06:09:18;10.07;;;5.57;;
72728;SDS011;60843;52.062;4.508;2023-04-19T06:11:43;10.57;;;5.03;;
72728;SDS011;60843;52.062;4.508;2023-04-19T06:14:10;6.93;;;3.40;;
72728;SDS011;60843;52.062;4.508;2023-04-19T06:16:37;7.03;;;4.47;;
72728;SDS011;60843;52.062;4.508;2023-04-19T06:19:04;8.20;;;4.88;;
72728;SDS011;60843;52.062;4.508;2023-04-19T06:21:29;6.43;;;4.40;;
72728;SDS011;60843;52.062;4.508;2023-04-19T06:26:30;9.65;;;4.82;;
72728;SDS011;60843;52.062;4.508;2023-04-19T06:28:56;6.65;;;3.92;;
72728;SDS011;60843;52.062;4.508;2023-04-19T06:31:21;7.10;;;4.15;;
72728;SDS011;60843;52.062;4.508;2023-04-19T06:33:47;10.93;;;4.60;;
72728;SDS011;60843;52.062;4.508;2023-04-19T06:36:12;7.47;;;4.40;;
72728;SDS011;60843;52.062;4.508;2023-04-19T06:38:38;8.10;;;4.27;;
72728;SDS011;60843;52.062;4.508;2023-04-19T06:41:05;6.90;;;4.35;;
72728;SDS011;60843;52.062;4.508;2023-04-19T06:43:30;6.78;;;4.45;;
72728;SDS011;60843;52.062;4.508;2023-04-19T06:45:56;8.75;;;3.67;;
72728;SDS011;60843;52.062;4.508;2023-04-19T06:48:25;7.20;;;3.40;;
72728;SDS011;60843;52.062;4.508;2023-04-19T06:50:51;7.15;;;4.63;;
72728;SDS011;60843;52.062;4.508;2023-04-19T06:53:17;5.70;;;4.00;;
72728;SDS011;60843;52.062;4.508;2023-04-19T06:55:56;7.38;;;3.58;;
72728;SDS011;60843;52.062;4.508;2023-04-19T06:58:25;6.75;;;4.22;;
72728;SDS011;60843;52.062;4.508;2023-04-19T07:00:51;12.82;;;4.13;;
72728;SDS011;60843;52.062;4.508;2023-04-19T07:03:17;7.45;;;3.88;;
72728;SDS011;60843;52.062;4.508;2023-04-19T07:05:42;8.53;;;4.03;;
72728;SDS011;60843;52.062;4.508;2023-04-19T07:08:07;6.50;;;3.83;;
72728;SDS011;60843;52.062;4.508;2023-04-19T07:10:33;6.75;;;4.00;;
72728;SDS011;60843;52.062;4.508;2023-04-19T07:12:58;7.22;;;4.03;;
72728;SDS011;60843;52.062;4.508;2023-04-19T07:15:24;6.95;;;3.75;;
72728;SDS011;60843;52.062;4.508;2023-04-19T07:17:49;6.30;;;3.80;;
72728;SDS011;60843;52.062;4.508;2023-04-19T07:20:14;5.70;;;3.37;;
72728;SDS011;60843;52.062;4.508;2023-04-19T07:22:40;19.33;;;4.70;;
72728;SDS011;60843;52.062;4.508;2023-04-19T07:25:05;10.17;;;3.70;;
72728;SDS011;60843;52.062;4.508;2023-04-19T07:27:31;6.40;;;4.07;;
72728;SDS011;60843;52.062;4.508;2023-04-19T07:29:56;6.67;;;3.63;;
72728;SDS011;60843;52.062;4.508;2023-04-19T07:32:21;7.43;;;3.97;;
72728;SDS011;60843;52.062;4.508;2023-04-19T07:34:47;7.68;;;3.35;;
72728;SDS011;60843;52.062;4.508;2023-04-19T07:37:12;6.03;;;3.40;;
72728;SDS011;60843;52.062;4.508;2023-04-19T07:39:38;7.28;;;3.45;;
72728;SDS011;60843;52.062;4.508;2023-04-19T07:42:04;6.88;;;4.10;;
72728;SDS011;60843;52.062;4.508;2023-04-19T07:44:29;8.25;;;3.90;;
72728;SDS011;60843;52.062;4.508;2023-04-19T07:46:55;6.60;;;3.35;;
72728;SDS011;60843;52.062;4.508;2023-04-19T07:49:21;6.60;;;3.45;;
72728;SDS011;60843;52.062;4.508;2023-04-19T07:51:46;6.05;;;3.50;;
72728;SDS011;60843;52.062;4.508;2023-04-19T07:54:12;8.10;;;3.70;;
72728;SDS011;60843;52.062;4.508;2023-04-19T07:56:47;5.53;;;3.43;;
72728;SDS011;60843;52.062;4.508;2023-04-19T07:59:13;12.38;;;3.75;;
72728;SDS011;60843;52.062;4.508;2023-04-19T08:01:38;8.05;;;3.70;;
72728;SDS011;60843;52.062;4.508;2023-04-19T08:04:04;5.35;;;3.38;;
72728;SDS011;60843;52.062;4.508;2023-04-19T08:06:30;6.38;;;2.60;;
72728;SDS011;60843;52.062;4.508;2023-04-19T08:08:57;7.13;;;3.45;;
72728;SDS011;60843;52.062;4.508;2023-04-19T08:11:22;6.27;;;3.07;;
72728;SDS011;60843;52.062;4.508;2023-04-19T08:13:50;6.70;;;3.38;;
72728;SDS011;60843;52.062;4.508;2023-04-19T08:16:15;8.20;;;3.65;;
72728;SDS011;60843;52.062;4.508;2023-04-19T08:18:40;10.10;;;3.10;;
72728;SDS011;60843;52.062;4.508;2023-04-19T08:21:06;9.10;;;3.65;;
72728;SDS011;60843;52.062;4.508;2023-04-19T08:23:31;5.30;;;3.33;;
72728;SDS011;60843;52.062;4.508;2023-04-19T08:25:57;8.27;;;3.63;;
72728;SDS011;60843;52.062;4.508;2023-04-19T08:28:22;8.25;;;3.30;;
72728;SDS011;60843;52.062;4.508;2023-04-19T08:30:47;6.23;;;3.10;;
72728;SDS011;60843;52.062;4.508;2023-04-19T08:33:13;6.68;;;3.25;;
72728;SDS011;60843;52.062;4.508;2023-04-19T08:35:42;5.55;;;2.97;;
72728;SDS011;60843;52.062;4.508;2023-04-19T08:38:09;7.57;;;3.10;;
72728;SDS011;60843;52.062;4.508;2023-04-19T08:40:34;5.38;;;2.85;;
72728;SDS011;60843;52.062;4.508;2023-04-19T08:43:10;4.53;;;2.78;;
72728;SDS011;60843;52.062;4.508;2023-04-19T08:45:36;4.43;;;2.67;;
72728;SDS011;60843;52.062;4.508;2023-04-19T08:48:01;9.13;;;2.78;;
72728;SDS011;60843;52.062;4.508;2023-04-19T08:50:29;6.25;;;2.75;;
72728;SDS011;60843;52.062;4.508;2023-04-19T08:53:01;4.60;;;1.80;;
72728;SDS011;60843;52.062;4.508;2023-04-19T08:55:28;6.18;;;2.17;;
72728;SDS011;60843;52.062;4.508;2023-04-19T08:57:54;3.55;;;1.77;;
72728;SDS011;60843;52.062;4.508;2023-04-19T09:00:20;3.28;;;1.65;;
72728;SDS011;60843;52.062;4.508;2023-04-19T09:02:50;5.03;;;2.00;;
72728;SDS011;60843;52.062;4.508;2023-04-19T09:05:17;2.60;;;1.85;;
72728;SDS011;60843;52.062;4.508;2023-04-19T09:07:43;3.78;;;1.83;;
72728;SDS011;60843;52.062;4.508;2023-04-19T09:10:16;3.08;;;1.73;;
72728;SDS011;60843;52.062;4.508;2023-04-19T09:13:05;3.72;;;1.60;;
72728;SDS011;60843;52.062;4.508;2023-04-19T09:15:39;3.10;;;1.42;;
72728;SDS011;60843;52.062;4.508;2023-04-19T09:18:07;5.20;;;2.00;;
72728;SDS011;60843;52.062;4.508;2023-04-19T09:20:36;2.88;;;1.85;;
72728;SDS011;60843;52.062;4.508;2023-04-19T09:23:03;3.47;;;1.98;;
72728;SDS011;60843;52.062;4.508;2023-04-19T09:25:30;4.70;;;1.77;;
72728;SDS011;60843;52.062;4.508;2023-04-19T09:27:55;4.68;;;2.00;;
72728;SDS011;60843;52.062;4.508;2023-04-19T09:30:33;1.65;;;1.40;;
72728;SDS011;60843;52.062;4.508;2023-04-19T09:32:58;4.30;;;1.85;;
72728;SDS011;60843;52.062;4.508;2023-04-19T09:35:38;3.07;;;1.93;;
72728;SDS011;60843;52.062;4.508;2023-04-19T09:38:13;3.10;;;1.67;;
72728;SDS011;60843;52.062;4.508;2023-04-19T09:40:39;3.30;;;1.27;;
72728;SDS011;60843;52.062;4.508;2023-04-19T09:43:05;6.00;;;1.70;;
72728;SDS011;60843;52.062;4.508;2023-04-19T09:45:38;3.15;;;1.70;;
72728;SDS011;60843;52.062;4.508;2023-04-19T09:48:07;4.80;;;1.60;;
72728;SDS011;60843;52.062;4.508;2023-04-19T09:50:33;2.97;;;1.70;;
72728;SDS011;60843;52.062;4.508;2023-04-19T09:53:00;2.80;;;1.63;;
72728;SDS011;60843;52.062;4.508;2023-04-19T09:55:26;3.50;;;1.40;;
72728;SDS011;60843;52.062;4.508;2023-04-19T09:57:52;2.38;;;1.30;;
72728;SDS011;60843;52.062;4.508;2023-04-19T10:00:17;4.15;;;1.67;;
72728;SDS011;60843;52.062;4.508;2023-04-19T10:02:48;3.90;;;1.38;;
72728;SDS011;60843;52.062;4.508;2023-04-19T10:05:22;4.53;;;1.38;;
72728;SDS011;60843;52.062;4.508;2023-04-19T10:07:48;2.08;;;1.02;;
72728;SDS011;60843;52.062;4.508;2023-04-19T10:10:15;2.53;;;1.33;;
72728;SDS011;60843;52.062;4.508;2023-04-19T10:12:42;3.10;;;1.23;;
72728;SDS011;60843;52.062;4.508;2023-04-19T10:15:15;2.30;;;1.23;;
72728;SDS011;60843;52.062;4.508;2023-04-19T10:17:41;2.78;;;1.50;;
72728;SDS011;60843;52.062;4.508;2023-04-19T10:20:09;2.33;;;1.20;;
72728;SDS011;60843;52.062;4.508;2023-04-19T10:22:44;2.08;;;1.08;;
72728;SDS011;60843;52.062;4.508;2023-04-19T10:25:10;1.88;;;0.90;;
72728;SDS011;60843;52.062;4.508;2023-04-19T10:30:19;3.20;;;1.33;;
72728;SDS011;60843;52.062;4.508;2023-04-19T10:32:50;8.30;;;1.20;;
72728;SDS011;60843;52.062;4.508;2023-04-19T10:35:21;1.10;;;0.73;;
72728;SDS011;60843;52.062;4.508;2023-04-19T10:40:53;6.75;;;1.10;;
72728;SDS011;60843;52.062;4.508;2023-04-19T10:43:21;1.80;;;1.00;;
72728;SDS011;60843;52.062;4.508;2023-04-19T10:45:49;1.60;;;0.85;;
72728;SDS011;60843;52.062;4.508;2023-04-19T10:51:15;1.92;;;1.20;;
72728;SDS011;60843;52.062;4.508;2023-04-19T10:56:12;0.90;;;0.73;;
72728;SDS011;60843;52.062;4.508;2023-04-19T11:01:42;2.97;;;0.80;;
72728;SDS011;60843;52.062;4.508;2023-04-19T11:04:09;1.23;;;0.73;;
72728;SDS011;60843;52.062;4.508;2023-04-19T11:06:35;1.65;;;0.77;;
72728;SDS011;60843;52.062;4.508;2023-04-19T11:09:01;1.63;;;0.93;;
72728;SDS011;60843;52.062;4.508;2023-04-19T11:11:34;2.90;;;1.02;;
72728;SDS011;60843;52.062;4.508;2023-04-19T11:14:00;2.15;;;1.05;;
72728;SDS011;60843;52.062;4.508;2023-04-19T11:16:28;1.45;;;0.95;;
72728;SDS011;60843;52.062;4.508;2023-04-19T11:18:54;5.35;;;1.25;;
72728;SDS011;60843;52.062;4.508;2023-04-19T11:21:20;1.73;;;0.85;;
72728;SDS011;60843;52.062;4.508;2023-04-19T11:23:46;1.92;;;1.30;;
72728;SDS011;60843;52.062;4.508;2023-04-19T11:26:14;2.03;;;1.20;;
72728;SDS011;60843;52.062;4.508;2023-04-19T11:28:40;1.55;;;0.98;;
72728;SDS011;60843;52.062;4.508;2023-04-19T11:31:06;2.08;;;0.95;;
72728;SDS011;60843;52.062;4.508;2023-04-19T11:33:35;2.17;;;1.75;;
72728;SDS011;60843;52.062;4.508;2023-04-19T11:36:01;3.13;;;1.05;;
72728;SDS011;60843;52.062;4.508;2023-04-19T11:38:27;3.10;;;1.27;;
72728;SDS011;60843;52.062;4.508;2023-04-19T11:41:02;3.03;;;1.42;;
72728;SDS011;60843;52.062;4.508;2023-04-19T11:43:34;1.67;;;1.02;;
72728;SDS011;60843;52.062;4.508;2023-04-19T11:46:04;1.08;;;0.68;;
72728;SDS011;60843;52.062;4.508;2023-04-19T11:48:32;2.40;;;0.98;;
72728;SDS011;60843;52.062;4.508;2023-04-19T11:50:58;2.13;;;1.30;;
72728;SDS011;60843;52.062;4.508;2023-04-19T11:53:25;4.43;;;1.10;;
72728;SDS011;60843;52.062;4.508;2023-04-19T11:58:43;2.33;;;1.08;;
72728;SDS011;60843;52.062;4.508;2023-04-19T12:06:10;2.38;;;0.80;;
72728;SDS011;60843;52.062;4.508;2023-04-19T12:08:37;1.25;;;0.70;;
72728;SDS011;60843;52.062;4.508;2023-04-19T12:11:04;0.82;;;0.63;;
72728;SDS011;60843;52.062;4.508;2023-04-19T12:13:32;1.77;;;0.93;;
72728;SDS011;60843;52.062;4.508;2023-04-19T12:15:58;1.33;;;0.90;;
72728;SDS011;60843;52.062;4.508;2023-04-19T12:18:24;2.53;;;1.08;;
72728;SDS011;60843;52.062;4.508;2023-04-19T12:20:51;4.78;;;1.10;;
72728;SDS011;60843;52.062;4.508;2023-04-19T12:23:33;1.50;;;0.90;;
72728;SDS011;60843;52.062;4.508;2023-04-19T12:26:01;2.42;;;1.35;;
72728;SDS011;60843;52.062;4.508;2023-04-19T12:28:29;2.40;;;1.20;;
72728;SDS011;60843;52.062;4.508;2023-04-19T12:30:55;4.03;;;1.20;;
72728;SDS011;60843;52.062;4.508;2023-04-19T12:33:20;2.53;;;1.17;;
72728;SDS011;60843;52.062;4.508;2023-04-19T12:35:45;2.72;;;1.20;;
72728;SDS011;60843;52.062;4.508;2023-04-19T12:38:11;2.33;;;1.00;;
72728;SDS011;60843;52.062;4.508;2023-04-19T12:40:36;1.53;;;0.93;;
72728;SDS011;60843;52.062;4.508;2023-04-19T12:43:01;2.13;;;1.20;;
72728;SDS011;60843;52.062;4.508;2023-04-19T12:45:33;2.30;;;1.15;;
72728;SDS011;60843;52.062;4.508;2023-04-19T12:47:58;2.22;;;1.27;;
72728;SDS011;60843;52.062;4.508;2023-04-19T12:50:24;1.90;;;1.20;;
72728;SDS011;60843;52.062;4.508;2023-04-19T12:52:57;3.83;;;1.50;;
72728;SDS011;60843;52.062;4.508;2023-04-19T12:55:22;4.57;;;1.30;;
72728;SDS011;60843;52.062;4.508;2023-04-19T12:57:48;1.52;;;0.90;;
72728;SDS011;60843;52.062;4.508;2023-04-19T13:00:13;4.00;;;1.33;;
72728;SDS011;60843;52.062;4.508;2023-04-19T13:02:39;4.43;;;1.40;;
72728;SDS011;60843;52.062;4.508;2023-04-19T13:05:05;2.00;;;1.30;;
72728;SDS011;60843;52.062;4.508;2023-04-19T13:07:33;2.80;;;1.38;;
72728;SDS011;60843;52.062;4.508;2023-04-19T13:09:58;2.10;;;1.30;;
72728;SDS011;60843;52.062;4.508;2023-04-19T13:12:24;3.23;;;1.80;;
72728;SDS011;60843;52.062;4.508;2023-04-19T13:14:49;2.63;;;1.42;;
72728;SDS011;60843;52.062;4.508;2023-04-19T13:17:19;3.75;;;1.50;;
72728;SDS011;60843;52.062;4.508;2023-04-19T13:19:44;3.28;;;1.52;;
72728;SDS011;60843;52.062;4.508;2023-04-19T13:22:10;2.40;;;1.40;;
72728;SDS011;60843;52.062;4.508;2023-04-19T13:24:35;2.67;;;1.33;;
72728;SDS011;60843;52.062;4.508;2023-04-19T13:27:04;3.63;;;1.40;;
72728;SDS011;60843;52.062;4.508;2023-04-19T13:29:29;5.18;;;1.40;;
72728;SDS011;60843;52.062;4.508;2023-04-19T13:31:55;1.95;;;1.17;;
72728;SDS011;60843;52.062;4.508;2023-04-19T13:34:20;2.45;;;1.63;;
72728;SDS011;60843;52.062;4.508;2023-04-19T13:36:46;4.47;;;1.60;;
72728;SDS011;60843;52.062;4.508;2023-04-19T13:39:11;2.20;;;1.40;;
72728;SDS011;60843;52.062;4.508;2023-04-19T13:41:37;2.13;;;1.50;;
72728;SDS011;60843;52.062;4.508;2023-04-19T13:44:02;2.38;;;1.63;;
72728;SDS011;60843;52.062;4.508;2023-04-19T13:46:28;3.47;;;1.85;;
72728;SDS011;60843;52.062;4.508;2023-04-19T13:48:56;4.30;;;1.98;;
72728;SDS011;60843;52.062;4.508;2023-04-19T13:51:21;2.63;;;1.27;;
72728;SDS011;60843;52.062;4.508;2023-04-19T13:53:47;3.08;;;1.52;;
72728;SDS011;60843;52.062;4.508;2023-04-19T13:56:12;6.97;;;1.50;;
72728;SDS011;60843;52.062;4.508;2023-04-19T13:58:39;2.90;;;1.38;;
72728;SDS011;60843;52.062;4.508;2023-04-19T14:01:05;3.17;;;1.88;;
72728;SDS011;60843;52.062;4.508;2023-04-19T14:03:30;5.45;;;1.75;;
72728;SDS011;60843;52.062;4.508;2023-04-19T14:05:56;2.33;;;1.25;;
72728;SDS011;60843;52.062;4.508;2023-04-19T14:08:22;7.32;;;2.25;;
72728;SDS011;60843;52.062;4.508;2023-04-19T14:10:48;3.15;;;1.92;;
72728;SDS011;60843;52.062;4.508;2023-04-19T14:13:15;3.00;;;1.65;;
72728;SDS011;60843;52.062;4.508;2023-04-19T14:15:40;4.55;;;1.67;;
72728;SDS011;60843;52.062;4.508;2023-04-19T14:18:06;3.30;;;1.48;;
72728;SDS011;60843;52.062;4.508;2023-04-19T14:20:31;3.58;;;1.40;;
72728;SDS011;60843;52.062;4.508;2023-04-19T14:22:57;7.38;;;1.48;;
72728;SDS011;60843;52.062;4.508;2023-04-19T14:25:25;2.95;;;1.58;;
72728;SDS011;60843;52.062;4.508;2023-04-19T14:27:51;3.58;;;1.60;;
72728;SDS011;60843;52.062;4.508;2023-04-19T14:30:16;2.57;;;1.57;;
72728;SDS011;60843;52.062;4.508;2023-04-19T14:32:42;2.10;;;1.40;;
72728;SDS011;60843;52.062;4.508;2023-04-19T14:35:07;3.07;;;1.40;;
72728;SDS011;60843;52.062;4.508;2023-04-19T14:40:04;3.25;;;1.20;;
72728;SDS011;60843;52.062;4.508;2023-04-19T14:42:30;2.53;;;1.55;;
72728;SDS011;60843;52.062;4.508;2023-04-19T14:44:56;4.43;;;1.50;;
72728;SDS011;60843;52.062;4.508;2023-04-19T14:47:22;3.75;;;1.73;;
72728;SDS011;60843;52.062;4.508;2023-04-19T14:49:47;2.33;;;1.30;;
72728;SDS011;60843;52.062;4.508;2023-04-19T14:52:13;3.83;;;1.30;;
72728;SDS011;60843;52.062;4.508;2023-04-19T14:54:38;4.40;;;1.80;;
72728;SDS011;60843;52.062;4.508;2023-04-19T14:57:03;2.90;;;1.67;;
72728;SDS011;60843;52.062;4.508;2023-04-19T14:59:29;2.50;;;1.77;;
72728;SDS011;60843;52.062;4.508;2023-04-19T15:01:54;2.78;;;1.60;;
72728;SDS011;60843;52.062;4.508;2023-04-19T15:04:20;2.75;;;1.58;;
72728;SDS011;60843;52.062;4.508;2023-04-19T15:06:45;2.78;;;1.50;;
72728;SDS011;60843;52.062;4.508;2023-04-19T15:09:11;6.53;;;1.05;;
72728;SDS011;60843;52.062;4.508;2023-04-19T15:11:37;2.60;;;1.35;;